createdAt,value
2022-09-01T00:01:02.491Z,11.68
2022-09-01T00:03:29.376Z,12.40
2022-09-01T00:05:56.754Z,11.90
2022-09-01T00:08:24.132Z,14.30
2022-09-01T00:10:50.980Z,14.10
2022-09-01T00:13:18.107Z,15.00
2022-09-01T00:15:44.659Z,12.10
2022-09-01T00:18:11.389Z,13.25
2022-09-01T00:20:37.995Z,18.05
2022-09-01T00:23:04.605Z,14.05
2022-09-01T00:25:31.122Z,12.68
2022-09-01T00:27:57.602Z,14.70
2022-09-01T00:30:24.106Z,13.50
2022-09-01T00:32:50.683Z,13.50
2022-09-01T00:35:19.181Z,14.77
2022-09-01T00:37:45.770Z,13.60
2022-09-01T00:40:13.925Z,15.73
2022-09-01T00:49:35.408Z,16.27
2022-09-01T00:52:12.921Z,15.27
2022-09-01T00:54:46.615Z,14.38
2022-09-01T00:57:14.446Z,12.32
2022-09-01T00:59:49.410Z,11.85
2022-09-01T01:02:16.020Z,9.30
2022-09-01T01:04:42.668Z,14.10
2022-09-01T01:07:11.299Z,15.95
2022-09-01T01:09:41.955Z,15.88
2022-09-01T01:12:09.247Z,14.60
2022-09-01T01:14:36.001Z,16.60
2022-09-01T01:17:03.041Z,16.75
2022-09-01T01:19:50.523Z,15.50
2022-09-01T01:22:25.079Z,13.75
2022-09-01T01:24:51.630Z,11.13
2022-09-01T01:27:18.193Z,10.95
2022-09-01T01:29:44.728Z,11.00
2022-09-01T01:32:11.339Z,11.43
2022-09-01T01:34:38.143Z,9.13
2022-09-01T01:37:04.719Z,8.93
2022-09-01T01:39:31.403Z,9.60
2022-09-01T01:41:58.191Z,8.35
2022-09-01T01:44:26.931Z,7.53
2022-09-01T01:46:55.415Z,7.13
2022-09-01T01:49:24.520Z,7.95
2022-09-01T01:51:53.916Z,7.78
2022-09-01T01:54:20.424Z,7.25
2022-09-01T01:56:46.986Z,7.43
2022-09-01T01:59:13.555Z,6.20
2022-09-01T02:01:40.574Z,7.60
2022-09-01T02:04:07.260Z,4.65
2022-09-01T02:06:35.066Z,4.95
2022-09-01T02:09:02.487Z,6.00
2022-09-01T02:11:29.831Z,7.57
2022-09-01T02:13:56.628Z,5.93
2022-09-01T02:16:24.923Z,7.82
2022-09-01T02:18:52.081Z,6.70
2022-09-01T02:21:20.614Z,7.93
2022-09-01T02:23:53.448Z,7.03
2022-09-01T02:26:22.787Z,7.30
2022-09-01T02:28:54.642Z,9.77
2022-09-01T02:31:23.159Z,8.90
2022-09-01T02:33:50.885Z,8.30
2022-09-01T02:36:18.753Z,8.77
2022-09-01T02:38:46.696Z,6.85
2022-09-01T02:41:15.546Z,6.22
2022-09-01T02:43:42.846Z,5.40
2022-09-01T02:46:09.760Z,6.65
2022-09-01T02:48:39.078Z,6.28
2022-09-01T02:51:17.030Z,5.20
2022-09-01T02:53:44.971Z,5.70
2022-09-01T02:56:12.195Z,5.30
2022-09-01T02:58:39.264Z,3.97
2022-09-01T03:01:15.703Z,5.70
2022-09-01T03:03:42.290Z,6.63
2022-09-01T03:06:08.832Z,8.23
2022-09-01T03:08:35.708Z,7.57
2022-09-01T03:11:02.256Z,7.18
2022-09-01T03:13:28.755Z,6.32
2022-09-01T03:15:55.269Z,7.10
2022-09-01T03:18:21.951Z,5.50
2022-09-01T03:20:48.625Z,6.57
2022-09-01T03:23:19.299Z,6.57
2022-09-01T03:25:47.295Z,5.97
2022-09-01T03:28:14.398Z,5.63
2022-09-01T03:30:46.479Z,5.10
2022-09-01T03:33:13.151Z,7.25
2022-09-01T03:35:39.747Z,6.63
2022-09-01T03:38:06.484Z,5.88
2022-09-01T03:40:35.455Z,5.32
2022-09-01T03:43:05.161Z,7.78
2022-09-01T03:45:32.555Z,7.30
2022-09-01T03:47:59.102Z,8.90
2022-09-01T03:50:25.823Z,8.07
2022-09-01T03:53:01.124Z,8.15
2022-09-01T03:55:30.918Z,7.35
2022-09-01T03:58:01.470Z,6.25
2022-09-01T04:00:29.194Z,5.32
2022-09-01T04:02:59.055Z,4.80
2022-09-01T04:05:27.456Z,4.07
2022-09-01T04:07:55.727Z,4.70
2022-09-01T04:10:23.291Z,4.07
2022-09-01T04:12:50.706Z,3.75
2022-09-01T04:15:18.575Z,4.00
2022-09-01T04:17:45.824Z,4.47
2022-09-01T04:20:12.479Z,4.00
2022-09-01T04:22:39.022Z,3.70
2022-09-01T04:25:06.504Z,4.05
2022-09-01T04:27:33.022Z,4.00
2022-09-01T04:29:59.546Z,4.28
2022-09-01T04:32:26.076Z,3.80
2022-09-01T04:34:52.597Z,3.45
2022-09-01T04:37:21.717Z,4.13
2022-09-01T04:39:56.162Z,4.00
2022-09-01T04:42:25.967Z,4.03
2022-09-01T04:44:53.695Z,3.92
2022-09-01T04:47:20.331Z,3.78
2022-09-01T04:49:47.025Z,3.70
2022-09-01T04:52:13.897Z,3.58
2022-09-01T04:54:40.507Z,4.00
2022-09-01T04:57:07.146Z,4.43
2022-09-01T04:59:34.583Z,4.10
2022-09-01T05:02:01.106Z,3.95
2022-09-01T05:04:30.125Z,4.13
2022-09-01T05:06:58.096Z,3.75
2022-09-01T05:09:24.658Z,3.80
2022-09-01T05:11:51.480Z,3.10
2022-09-01T05:14:17.969Z,3.50
2022-09-01T05:16:44.841Z,3.15
2022-09-01T05:19:12.541Z,3.13
2022-09-01T05:21:39.056Z,2.92
2022-09-01T05:24:05.773Z,3.58
2022-09-01T05:26:33.131Z,5.10
2022-09-01T05:29:02.358Z,4.40
2022-09-01T05:31:30.630Z,3.53
2022-09-01T05:33:57.194Z,4.63
2022-09-01T05:36:24.170Z,5.07
2022-09-01T05:38:50.952Z,7.18
2022-09-01T05:41:21.812Z,9.52
2022-09-01T05:43:49.812Z,7.47
2022-09-01T05:46:19.163Z,7.38
2022-09-01T05:48:47.387Z,9.93
2022-09-01T05:51:33.375Z,9.27
2022-09-01T05:54:00.505Z,9.98
2022-09-01T05:56:29.008Z,11.52
2022-09-01T06:01:44.720Z,10.93
2022-09-01T06:04:14.718Z,9.43
2022-09-01T06:07:05.285Z,11.60
2022-09-01T06:09:31.126Z,12.15
2022-09-01T06:11:57.688Z,12.15
2022-09-01T06:14:24.188Z,13.70
2022-09-01T06:16:50.736Z,13.73
2022-09-01T06:19:17.272Z,13.73
2022-09-01T06:21:43.799Z,13.30
2022-09-01T06:24:10.338Z,14.27
2022-09-01T06:26:38.395Z,12.68
2022-09-01T06:29:07.771Z,14.73
2022-09-01T06:31:35.714Z,13.38
2022-09-01T06:34:03.211Z,14.98
2022-09-01T06:36:34.871Z,13.32
2022-09-01T06:39:01.625Z,11.55
2022-09-01T06:41:29.106Z,13.27
2022-09-01T06:43:55.718Z,12.73
2022-09-01T06:46:23.034Z,13.40
2022-09-01T06:48:50.385Z,10.73
2022-09-01T06:51:22.551Z,12.30
2022-09-01T06:53:51.974Z,12.52
2022-09-01T06:56:19.284Z,11.25
2022-09-01T06:58:47.209Z,8.70
2022-09-01T07:01:16.423Z,9.07
2022-09-01T07:03:43.752Z,7.18
2022-09-01T07:06:59.254Z,7.43
2022-09-01T07:14:33.683Z,6.53
2022-09-01T07:19:49.676Z,6.78
2022-09-01T07:25:12.107Z,7.95
2022-09-01T07:27:49.949Z,7.03
2022-09-01T07:30:19.166Z,6.65
2022-09-01T07:32:48.536Z,6.85
2022-09-01T07:35:19.049Z,5.57
2022-09-01T07:43:22.858Z,5.65
2022-09-01T07:46:00.549Z,5.28
2022-09-01T07:54:05.645Z,6.05
2022-09-01T07:56:36.305Z,5.20
2022-09-01T07:59:06.148Z,5.53
2022-09-01T08:01:32.725Z,4.93
2022-09-01T08:04:00.714Z,4.88
2022-09-01T08:06:37.599Z,5.35
2022-09-01T08:09:04.579Z,5.30
2022-09-01T08:14:18.431Z,4.93
2022-09-01T08:16:52.478Z,5.68
2022-09-01T08:19:19.654Z,5.18
2022-09-01T08:21:46.170Z,5.18
2022-09-01T08:24:12.740Z,6.22
2022-09-01T08:26:39.240Z,4.82
2022-09-01T08:29:05.966Z,5.60
2022-09-01T08:31:32.596Z,6.28
2022-09-01T08:33:59.159Z,7.68
2022-09-01T08:36:26.030Z,7.28
2022-09-01T08:38:55.718Z,6.65
2022-09-01T08:41:37.326Z,5.45
2022-09-01T08:44:11.067Z,7.32
2022-09-01T08:46:42.240Z,6.40
2022-09-01T08:49:26.940Z,6.45
2022-09-01T08:52:03.220Z,7.13
2022-09-01T08:54:40.742Z,6.10
2022-09-01T08:57:13.926Z,6.22
2022-09-01T08:59:40.487Z,6.35
2022-09-01T09:02:31.923Z,5.43
2022-09-01T09:05:35.741Z,5.18
2022-09-01T09:08:36.834Z,4.20
2022-09-01T09:11:26.761Z,3.75
2022-09-01T09:14:11.847Z,4.03
2022-09-01T09:16:43.263Z,3.60
2022-09-01T09:19:31.055Z,3.35
2022-09-01T09:22:00.571Z,3.38
2022-09-01T09:24:39.330Z,2.85
2022-09-01T09:27:07.110Z,2.92
2022-09-01T09:29:36.389Z,2.50
2022-09-01T09:32:22.602Z,2.70
2022-09-01T09:34:50.523Z,2.65
2022-09-01T09:37:30.496Z,2.70
2022-09-01T09:40:08.631Z,2.30
2022-09-01T09:42:42.553Z,2.50
2022-09-01T09:45:23.354Z,2.55
2022-09-01T09:47:50.047Z,2.80
2022-09-01T09:50:42.330Z,2.72
2022-09-01T09:53:14.759Z,3.17
2022-09-01T09:56:01.489Z,2.75
2022-09-01T09:58:40.346Z,2.95
2022-09-01T10:01:14.193Z,2.67
2022-09-01T10:04:01.601Z,2.10
2022-09-01T10:06:38.659Z,2.00
2022-09-01T10:09:15.195Z,1.50
2022-09-01T10:11:45.098Z,1.90
2022-09-01T10:14:52.408Z,2.00
2022-09-01T10:17:19.149Z,2.03
2022-09-01T10:19:52.567Z,2.80
2022-09-01T10:22:19.831Z,2.08
2022-09-01T10:24:50.131Z,2.35
2022-09-01T10:27:37.793Z,2.90
2022-09-01T10:30:12.601Z,2.15
2022-09-01T10:32:52.519Z,2.10
2022-09-01T10:35:28.840Z,1.67
2022-09-01T10:37:59.434Z,1.77
2022-09-01T10:40:30.802Z,1.35
2022-09-01T10:43:18.643Z,2.50
2022-09-01T10:45:46.233Z,2.05
2022-09-01T10:48:30.653Z,2.00
2022-09-01T10:51:21.057Z,1.88
2022-09-01T10:53:55.150Z,1.95
2022-09-01T11:02:35.988Z,2.45
2022-09-01T11:05:02.793Z,1.70
2022-09-01T11:07:57.937Z,2.15
2022-09-01T11:10:32.717Z,1.88
2022-09-01T11:13:20.401Z,2.13
2022-09-01T11:15:48.728Z,1.88
2022-09-01T11:18:25.423Z,2.00
2022-09-01T11:20:54.305Z,2.42
2022-09-01T11:23:30.124Z,2.55
2022-09-01T11:28:46.719Z,1.75
2022-09-01T11:31:44.206Z,1.50
2022-09-01T11:34:10.790Z,1.58
2022-09-01T11:36:43.179Z,1.70
2022-09-01T11:39:19.174Z,2.17
2022-09-01T11:42:19.474Z,1.67
2022-09-01T11:45:02.751Z,1.52
2022-09-01T11:47:36.464Z,1.40
2022-09-01T11:50:07.712Z,1.50
2022-09-01T11:52:37.980Z,1.15
2022-09-01T11:55:07.191Z,1.13
2022-09-01T11:57:37.166Z,1.50
2022-09-01T12:00:10.511Z,1.30
2022-09-01T12:02:46.285Z,1.25
2022-09-01T12:05:33.786Z,1.48
2022-09-01T12:08:03.812Z,1.08
2022-09-01T12:10:37.289Z,1.33
2022-09-01T12:13:09.663Z,1.50
2022-09-01T12:15:55.228Z,1.58
2022-09-01T12:18:30.873Z,1.70
2022-09-01T12:20:59.919Z,1.60
2022-09-01T12:23:28.604Z,1.50
2022-09-01T12:25:58.049Z,2.00
2022-09-01T12:28:30.474Z,2.33
2022-09-01T12:31:02.924Z,2.15
2022-09-01T12:33:34.939Z,1.80
2022-09-01T12:36:22.052Z,1.40
2022-09-01T12:38:49.341Z,1.40
2022-09-01T12:41:39.484Z,1.25
2022-09-01T12:44:30.886Z,1.25
2022-09-01T12:47:01.620Z,1.60
2022-09-01T12:49:50.623Z,1.25
2022-09-01T12:52:28.389Z,1.40
2022-09-01T12:58:06.146Z,1.27
2022-09-01T13:00:35.854Z,1.38
2022-09-01T13:03:02.333Z,1.42
2022-09-01T13:05:32.669Z,1.67
2022-09-01T13:08:07.632Z,1.38
2022-09-01T13:10:59.121Z,1.30
2022-09-01T13:13:26.917Z,1.63
2022-09-01T13:15:56.344Z,1.60
2022-09-01T13:18:28.454Z,1.60
2022-09-01T13:20:56.492Z,1.35
2022-09-01T13:23:23.565Z,1.45
2022-09-01T13:25:50.252Z,1.55
2022-09-01T13:28:17.817Z,1.50
2022-09-01T13:30:50.761Z,1.33
2022-09-01T13:39:10.093Z,1.50
2022-09-01T13:41:36.631Z,1.35
2022-09-01T13:44:03.424Z,1.30
2022-09-01T13:46:29.945Z,1.40
2022-09-01T13:49:04.989Z,1.30
2022-09-01T13:51:42.993Z,1.20
2022-09-01T13:54:09.508Z,1.15
2022-09-01T13:56:35.974Z,0.90
2022-09-01T13:59:02.499Z,1.00
2022-09-01T14:01:29.055Z,1.33
2022-09-01T14:04:00.138Z,1.08
2022-09-01T14:06:27.014Z,1.20
2022-09-01T14:08:53.533Z,1.35
2022-09-01T14:11:20.070Z,1.27
2022-09-01T14:13:47.191Z,1.08
2022-09-01T14:16:14.304Z,1.05
2022-09-01T14:18:42.047Z,1.10
2022-09-01T14:21:13.699Z,1.10
2022-09-01T14:23:41.419Z,1.23
2022-09-01T14:26:13.211Z,1.30
2022-09-01T14:28:40.755Z,0.90
2022-09-01T14:31:11.497Z,1.60
2022-09-01T14:33:39.111Z,1.00
2022-09-01T14:36:06.993Z,1.20
2022-09-01T14:38:34.206Z,1.25
2022-09-01T14:41:01.592Z,1.42
2022-09-01T14:43:28.435Z,1.30
2022-09-01T14:46:06.649Z,1.08
2022-09-01T14:48:34.447Z,1.20
2022-09-01T14:51:01.136Z,1.38
2022-09-01T14:53:28.980Z,1.15
2022-09-01T14:55:57.217Z,1.27
2022-09-01T14:58:24.600Z,1.35
2022-09-01T15:00:51.191Z,1.35
2022-09-01T15:03:22.421Z,1.38
2022-09-01T15:05:49.922Z,1.70
2022-09-01T15:08:22.072Z,1.55
2022-09-01T15:10:48.918Z,1.40
2022-09-01T15:13:15.512Z,1.05
2022-09-01T15:15:42.269Z,1.48
2022-09-01T15:18:08.872Z,1.45
2022-09-01T15:20:39.694Z,1.42
2022-09-01T15:23:07.187Z,1.42
2022-09-01T15:25:34.332Z,1.63
2022-09-01T15:28:00.878Z,2.05
2022-09-01T15:30:27.430Z,2.00
2022-09-01T15:32:54.772Z,1.67
2022-09-01T15:35:22.050Z,1.50
2022-09-01T15:37:50.104Z,1.40
2022-09-01T15:40:17.709Z,1.50
2022-09-01T15:42:44.689Z,1.65
2022-09-01T15:45:14.733Z,1.63
2022-09-01T15:47:45.591Z,1.65
2022-09-01T15:50:21.062Z,1.40
2022-09-01T15:52:53.287Z,1.20
2022-09-01T15:55:25.819Z,1.25
2022-09-01T15:57:52.784Z,1.42
2022-09-01T16:00:25.852Z,1.35
2022-09-01T16:02:53.036Z,1.10
2022-09-01T16:05:19.651Z,1.30
2022-09-01T16:07:46.238Z,1.08
2022-09-01T16:10:13.963Z,1.02
2022-09-01T16:12:42.775Z,0.98
2022-09-01T16:15:13.871Z,1.08
2022-09-01T16:18:03.418Z,1.40
2022-09-01T16:20:54.660Z,1.30
2022-09-01T16:23:23.921Z,0.90
2022-09-01T16:25:51.153Z,1.30
2022-09-01T16:28:31.362Z,1.10
2022-09-01T16:31:07.125Z,1.35
2022-09-01T16:33:34.091Z,1.13
2022-09-01T16:36:03.746Z,1.13
2022-09-01T16:38:39.076Z,1.27
2022-09-01T16:41:22.193Z,1.10
2022-09-01T16:44:09.863Z,1.25
2022-09-01T16:46:49.215Z,1.00
2022-09-01T16:50:07.779Z,1.20
2022-09-01T16:53:00.301Z,1.52
2022-09-01T16:55:37.959Z,1.25
2022-09-01T16:58:21.868Z,1.65
2022-09-01T17:03:42.945Z,1.55
2022-09-01T17:06:26.519Z,1.52
2022-09-01T17:09:06.743Z,1.55
2022-09-01T17:11:48.743Z,1.70
2022-09-01T17:14:22.180Z,1.90
2022-09-01T17:16:50.426Z,1.80
2022-09-01T17:19:19.657Z,1.70
2022-09-01T17:21:53.165Z,1.70
2022-09-01T17:24:31.776Z,1.70
2022-09-01T17:27:01.383Z,1.88
2022-09-01T17:29:41.503Z,1.40
2022-09-01T17:32:48.173Z,2.08
2022-09-01T17:35:23.857Z,1.60
2022-09-01T17:38:19.482Z,1.75
2022-09-01T17:40:46.106Z,1.80
2022-09-01T17:43:22.189Z,1.55
2022-09-01T17:45:54.555Z,2.10
2022-09-01T17:48:32.868Z,1.40
2022-09-01T17:51:25.602Z,1.58
2022-09-01T17:54:00.174Z,2.05
2022-09-01T17:56:39.325Z,2.17
2022-09-01T17:59:44.085Z,1.65
2022-09-01T18:02:41.529Z,1.83
2022-09-01T18:05:13.408Z,1.80
2022-09-01T18:08:29.935Z,1.80
2022-09-01T18:11:05.966Z,2.00
2022-09-01T18:14:00.028Z,1.95
2022-09-01T18:16:34.830Z,1.88
2022-09-01T18:19:19.459Z,1.58
2022-09-01T18:21:57.773Z,1.75
2022-09-01T18:24:55.486Z,1.83
2022-09-01T18:27:24.097Z,2.22
2022-09-01T18:29:52.053Z,1.83
2022-09-01T18:32:19.160Z,2.50
2022-09-01T18:35:10.586Z,1.77
2022-09-01T18:38:04.670Z,2.30
2022-09-01T18:41:12.794Z,2.10
2022-09-01T18:44:20.027Z,1.75
2022-09-01T18:46:59.785Z,1.70
2022-09-01T18:49:54.227Z,2.30
2022-09-01T18:53:05.819Z,2.00
2022-09-01T18:56:00.394Z,1.98
2022-09-01T18:58:30.041Z,2.13
2022-09-01T19:01:04.177Z,1.85
2022-09-01T19:06:29.362Z,1.90
2022-09-01T19:09:23.690Z,2.20
2022-09-01T19:12:02.387Z,2.58
2022-09-01T19:14:42.309Z,2.20
2022-09-01T19:17:53.461Z,2.40
2022-09-01T19:20:41.368Z,1.63
2022-09-01T19:23:14.172Z,1.90
2022-09-01T19:25:42.135Z,1.75
2022-09-01T19:28:24.256Z,2.05
2022-09-01T19:31:12.765Z,2.22
2022-09-01T19:33:44.565Z,1.90
2022-09-01T19:36:18.974Z,2.15
2022-09-01T19:38:45.734Z,2.70
2022-09-01T19:41:35.844Z,2.67
2022-09-01T19:44:25.695Z,2.80
2022-09-01T19:47:04.910Z,2.33
2022-09-01T19:49:57.244Z,2.50
2022-09-01T19:52:43.075Z,2.03
2022-09-01T19:55:20.460Z,2.20
2022-09-01T19:57:58.192Z,2.40
2022-09-01T20:00:29.839Z,2.40
2022-09-01T20:03:07.780Z,1.90
2022-09-01T20:06:02.154Z,1.80
2022-09-01T20:08:43.490Z,2.30
2022-09-01T20:11:18.430Z,2.42
2022-09-01T20:14:03.150Z,2.22
2022-09-01T20:16:43.495Z,2.33
2022-09-01T20:19:15.940Z,2.47
2022-09-01T20:21:46.762Z,2.30
2022-09-01T20:24:34.424Z,3.15
2022-09-01T20:27:05.310Z,2.78
2022-09-01T20:29:45.426Z,3.45
2022-09-01T20:32:16.863Z,2.45
2022-09-01T20:34:48.580Z,2.45
2022-09-01T20:37:22.190Z,2.53
2022-09-01T20:40:02.671Z,2.17
2022-09-01T20:42:47.402Z,2.33
2022-09-01T20:45:16.998Z,3.10
2022-09-01T20:47:54.968Z,2.20
2022-09-01T20:51:23.315Z,2.63
2022-09-01T20:54:09.392Z,2.78
2022-09-01T20:56:58.914Z,2.45
2022-09-01T20:59:28.419Z,2.55
2022-09-01T21:02:06.485Z,2.15
2022-09-01T21:04:57.195Z,2.35
2022-09-01T21:07:44.469Z,2.08
2022-09-01T21:11:01.384Z,2.80
2022-09-01T21:13:49.066Z,2.90
2022-09-01T21:16:26.942Z,3.30
2022-09-01T21:19:11.195Z,2.85
2022-09-01T21:22:07.509Z,3.38
2022-09-01T21:24:35.263Z,2.70
2022-09-01T21:27:05.498Z,2.78
2022-09-01T21:29:50.712Z,3.08
2022-09-01T21:32:17.749Z,3.00
2022-09-01T21:34:45.339Z,3.03
2022-09-01T21:37:12.418Z,2.72
2022-09-01T21:39:39.011Z,2.97
2022-09-01T21:42:08.198Z,3.08
2022-09-01T21:44:35.423Z,2.95
2022-09-01T21:47:02.943Z,2.50
2022-09-01T21:49:29.494Z,2.30
2022-09-01T21:51:59.763Z,2.22
2022-09-01T21:54:26.399Z,2.35
2022-09-01T21:56:52.921Z,2.80
2022-09-01T21:59:19.736Z,3.13
2022-09-01T22:01:46.384Z,2.70
2022-09-01T22:04:13.220Z,2.75
2022-09-01T22:06:40.506Z,2.72
2022-09-01T22:09:07.767Z,3.05
2022-09-01T22:11:47.558Z,2.55
2022-09-01T22:14:14.163Z,2.00
2022-09-01T22:16:40.726Z,3.05
2022-09-01T22:19:07.243Z,2.85
2022-09-01T22:21:35.953Z,2.10
2022-09-01T22:24:02.663Z,2.42
2022-09-01T22:26:31.460Z,2.42
2022-09-01T22:29:01.071Z,2.38
2022-09-01T22:31:29.841Z,2.33
2022-09-01T22:33:56.852Z,2.28
2022-09-01T22:36:31.124Z,2.88
2022-09-01T22:41:27.017Z,1.77
2022-09-01T22:43:53.873Z,1.92
2022-09-01T22:46:22.012Z,1.90
2022-09-01T22:48:49.514Z,2.20
2022-09-01T22:51:17.010Z,2.20
2022-09-01T22:53:45.663Z,2.00
2022-09-01T22:56:21.397Z,2.28
2022-09-01T22:58:49.594Z,1.77
2022-09-01T23:01:19.811Z,1.95
2022-09-01T23:03:47.557Z,1.75
2022-09-01T23:06:27.572Z,1.73
2022-09-01T23:09:00.070Z,1.58
2022-09-01T23:11:27.500Z,1.67
2022-09-01T23:13:54.975Z,1.73
2022-09-01T23:16:23.078Z,1.95
2022-09-01T23:18:50.381Z,1.80
2022-09-01T23:21:19.953Z,1.83
2022-09-01T23:23:46.974Z,2.10
2022-09-01T23:26:14.443Z,2.38
2022-09-01T23:28:42.551Z,2.20
2022-09-01T23:31:20.963Z,2.45
2022-09-01T23:33:47.823Z,2.67
2022-09-01T23:36:16.275Z,2.10
2022-09-01T23:38:42.831Z,2.15
2022-09-01T23:41:12.413Z,2.20
2022-09-01T23:43:39.811Z,2.58
2022-09-01T23:46:07.247Z,2.67
2022-09-01T23:48:34.358Z,1.90
2022-09-01T23:51:09.272Z,2.30
2022-09-01T23:53:38.446Z,2.95
2022-09-01T23:56:10.440Z,2.40
2022-09-01T23:58:37.067Z,2.90
